createdAt,value
2023-05-10T00:00:17.403Z,100831.03
2023-05-10T00:02:44.820Z,100832.94
2023-05-10T00:05:11.777Z,100825.13
2023-05-10T00:07:38.300Z,100825.38
2023-05-10T00:10:09.723Z,100821.34
2023-05-10T00:12:39.588Z,100816.09
2023-05-10T00:15:07.066Z,100816.78
2023-05-10T00:17:34.806Z,100811.94
2023-05-10T00:20:01.633Z,100809.53
2023-05-10T00:22:36.858Z,100806.63
2023-05-10T00:25:05.633Z,100800.44
2023-05-10T00:27:38.837Z,100801.06
2023-05-10T00:30:05.809Z,100797.34
2023-05-10T00:32:35.937Z,100793.16
2023-05-10T00:35:12.457Z,100793.75
2023-05-10T00:37:39.241Z,100787.03
2023-05-10T00:40:09.050Z,100784.72
2023-05-10T00:42:37.265Z,100784.34
2023-05-10T00:45:04.074Z,100780.56
2023-05-10T00:47:36.967Z,100784.66
2023-05-10T00:50:10.793Z,100786.84
2023-05-10T00:52:53.871Z,100782.25
2023-05-10T00:55:28.241Z,100782.31
2023-05-10T00:57:55.711Z,100778.22
2023-05-10T01:00:27.069Z,100766.88
2023-05-10T01:02:54.917Z,100776.25
2023-05-10T01:05:32.096Z,100770.72
2023-05-10T01:08:03.876Z,100767.28
2023-05-10T01:10:31.069Z,100760.22
2023-05-10T01:12:58.089Z,100765.91
2023-05-10T01:15:25.616Z,100764.41
2023-05-10T01:17:55.658Z,100757.13
2023-05-10T01:20:29.360Z,100769.31
2023-05-10T01:23:29.776Z,100720.84
2023-05-10T01:26:11.523Z,100764.00
2023-05-10T01:28:56.357Z,100759.84
2023-05-10T01:31:43.722Z,100703.50
2023-05-10T01:34:28.113Z,100763.75
2023-05-10T01:37:13.620Z,100755.31
2023-05-10T01:39:57.940Z,100707.88
2023-05-10T01:42:34.983Z,100760.47
2023-05-10T01:45:12.561Z,100754.81
2023-05-10T01:47:47.705Z,100758.00
2023-05-10T01:50:33.403Z,100757.72
2023-05-10T01:53:12.360Z,100755.66
2023-05-10T01:56:00.572Z,100704.97
2023-05-10T01:58:45.280Z,100760.72
2023-05-10T02:01:29.012Z,100758.22
2023-05-10T02:04:02.684Z,100761.63
2023-05-10T02:06:31.121Z,100758.28
2023-05-10T02:08:58.906Z,100765.88
2023-05-10T02:11:29.594Z,100762.03
2023-05-10T02:13:56.678Z,100759.59
2023-05-10T02:16:24.932Z,100759.03
2023-05-10T02:18:53.411Z,100766.72
2023-05-10T02:21:26.232Z,100669.34
2023-05-10T02:23:57.098Z,100767.00
2023-05-10T02:26:26.026Z,100767.28
2023-05-10T02:28:53.973Z,100770.88
2023-05-10T02:31:21.069Z,100768.00
2023-05-10T02:33:53.834Z,100769.69
2023-05-10T02:36:22.254Z,100766.16
2023-05-10T02:38:50.023Z,100767.41
2023-05-10T02:41:20.749Z,100706.91
2023-05-10T02:43:48.400Z,100757.78
2023-05-10T02:46:15.059Z,100756.06
2023-05-10T02:48:47.721Z,100755.84
2023-05-10T02:51:18.688Z,100762.00
2023-05-10T02:53:47.103Z,100762.63
2023-05-10T02:56:24.734Z,100755.81
2023-05-10T02:58:51.377Z,100754.59
2023-05-10T03:01:17.927Z,100756.75
2023-05-10T03:03:45.564Z,100761.72
2023-05-10T03:06:12.160Z,100758.56
2023-05-10T03:08:42.451Z,100755.22
2023-05-10T03:11:16.729Z,100757.97
2023-05-10T03:13:49.825Z,100755.16
2023-05-10T03:16:17.844Z,100764.13
2023-05-10T03:19:16.816Z,100755.78
2023-05-10T03:21:48.054Z,100748.91
2023-05-10T03:24:21.017Z,100743.31
2023-05-10T03:26:51.686Z,100692.00
2023-05-10T03:29:20.477Z,100696.41
2023-05-10T03:31:47.213Z,100744.69
2023-05-10T03:34:13.847Z,100742.72
2023-05-10T03:36:40.825Z,100751.66
2023-05-10T03:39:07.442Z,100743.78
2023-05-10T03:41:39.331Z,100748.31
2023-05-10T03:44:15.867Z,100748.69
2023-05-10T03:46:43.102Z,100748.69
2023-05-10T03:49:09.763Z,100754.19
2023-05-10T03:51:36.906Z,100751.66
2023-05-10T03:54:03.855Z,100754.28
2023-05-10T03:56:33.169Z,100750.47
2023-05-10T03:59:00.415Z,100744.72
2023-05-10T04:01:27.047Z,100748.22
2023-05-10T04:03:53.919Z,100747.13
2023-05-10T04:06:20.584Z,100756.06
2023-05-10T04:08:48.446Z,100744.31
2023-05-10T04:11:16.505Z,100744.03
2023-05-10T04:13:44.130Z,100743.75
2023-05-10T04:16:10.726Z,100743.53
2023-05-10T04:18:37.491Z,100741.06
2023-05-10T04:21:04.372Z,100746.47
2023-05-10T04:23:41.848Z,100739.09
2023-05-10T04:26:08.523Z,100747.25
2023-05-10T04:28:40.466Z,100744.72
2023-05-10T04:31:11.399Z,100740.56
2023-05-10T04:33:39.963Z,100737.47
2023-05-10T04:36:07.229Z,100742.00
2023-05-10T04:38:33.689Z,100741.13
2023-05-10T04:41:07.439Z,100742.66
2023-05-10T04:43:34.078Z,100748.50
2023-05-10T04:46:01.071Z,100743.50
2023-05-10T04:48:28.362Z,100747.41
2023-05-10T04:50:54.918Z,100738.69
2023-05-10T04:53:21.566Z,100739.97
2023-05-10T04:55:49.097Z,100736.91
2023-05-10T04:58:15.691Z,100740.63
2023-05-10T05:00:42.780Z,100740.75
2023-05-10T05:03:09.507Z,100741.31
2023-05-10T05:05:36.146Z,100742.75
2023-05-10T05:08:02.794Z,100742.25
2023-05-10T05:10:29.395Z,100743.41
2023-05-10T05:12:55.949Z,100735.03
2023-05-10T05:15:24.871Z,100681.25
2023-05-10T05:17:51.510Z,100733.97
2023-05-10T05:20:19.518Z,100738.06
2023-05-10T05:22:46.558Z,100738.34
2023-05-10T05:25:13.746Z,100733.00
2023-05-10T05:27:40.338Z,100739.03
2023-05-10T05:30:07.561Z,100736.06
2023-05-10T05:32:37.286Z,100735.31
2023-05-10T05:35:03.960Z,100735.53
2023-05-10T05:37:30.749Z,100732.84
2023-05-10T05:39:58.592Z,100734.06
2023-05-10T05:42:28.636Z,100730.88
2023-05-10T05:44:56.124Z,100742.50
2023-05-10T05:47:23.004Z,100736.75
2023-05-10T05:49:49.700Z,100737.31
2023-05-10T05:52:18.340Z,100738.78
2023-05-10T05:54:44.981Z,100742.66
2023-05-10T05:57:11.570Z,100737.84
2023-05-10T05:59:43.458Z,100728.56
2023-05-10T06:02:10.354Z,100678.34
2023-05-10T06:04:37.765Z,100681.59
2023-05-10T06:07:04.802Z,100740.53
2023-05-10T06:09:31.744Z,100734.22
2023-05-10T06:11:58.265Z,100740.00
2023-05-10T06:14:24.766Z,100734.41
2023-05-10T06:16:51.481Z,100740.81
2023-05-10T06:19:18.443Z,100736.38
2023-05-10T06:21:47.328Z,100745.75
2023-05-10T06:24:13.865Z,100738.31
2023-05-10T06:26:40.662Z,100738.50
2023-05-10T06:29:07.348Z,100740.25
2023-05-10T06:31:34.315Z,100735.81
2023-05-10T06:34:01.185Z,100741.47
2023-05-10T06:36:28.458Z,100740.81
2023-05-10T06:38:55.526Z,100741.56
2023-05-10T06:41:25.662Z,100742.25
2023-05-10T06:43:52.278Z,100732.56
2023-05-10T06:46:18.967Z,100733.13
2023-05-10T06:48:45.877Z,100731.56
2023-05-10T06:51:15.162Z,100681.31
2023-05-10T06:53:41.793Z,100732.03
2023-05-10T06:56:08.535Z,100731.19
2023-05-10T06:58:43.402Z,100674.13
2023-05-10T07:01:10.164Z,100724.66
2023-05-10T07:03:39.639Z,100726.84
2023-05-10T07:06:29.330Z,100716.25
2023-05-10T07:09:00.339Z,100729.69
2023-05-10T07:11:26.916Z,100724.91
2023-05-10T07:13:53.443Z,100733.06
2023-05-10T07:16:20.037Z,100733.47
2023-05-10T07:18:46.530Z,100735.09
2023-05-10T07:21:13.092Z,100732.81
2023-05-10T07:23:39.911Z,100730.97
2023-05-10T07:26:06.553Z,100727.44
2023-05-10T07:28:33.139Z,100721.53
2023-05-10T07:30:59.783Z,100726.84
2023-05-10T07:33:26.372Z,100731.22
2023-05-10T07:35:52.994Z,100734.16
2023-05-10T07:38:22.512Z,100731.63
2023-05-10T07:40:49.107Z,100734.88
2023-05-10T07:43:16.091Z,100731.38
2023-05-10T07:45:43.628Z,100638.16
2023-05-10T07:48:10.230Z,100729.06
2023-05-10T07:50:36.861Z,100724.00
2023-05-10T07:53:03.500Z,100728.59
2023-05-10T07:55:31.819Z,100725.91
2023-05-10T07:57:58.849Z,100721.44
2023-05-10T08:00:25.476Z,100731.16
2023-05-10T08:02:52.204Z,100724.47
2023-05-10T08:05:20.548Z,100729.50
2023-05-10T08:07:51.230Z,100668.88
2023-05-10T08:10:18.101Z,100724.06
2023-05-10T08:12:44.722Z,100724.78
2023-05-10T08:15:11.405Z,100732.09
2023-05-10T08:17:39.682Z,100730.44
2023-05-10T08:20:06.529Z,100724.69
2023-05-10T08:22:35.681Z,100636.28
2023-05-10T08:25:02.359Z,100719.31
2023-05-10T08:27:29.077Z,100728.69
2023-05-10T08:29:55.531Z,100732.91
2023-05-10T08:32:23.456Z,100741.25
2023-05-10T08:34:50.009Z,100736.25
2023-05-10T08:37:16.666Z,100742.63
2023-05-10T08:39:43.405Z,100751.09
2023-05-10T08:42:11.443Z,100748.56
2023-05-10T08:44:38.280Z,100752.03
2023-05-10T08:47:11.456Z,100744.66
2023-05-10T08:49:38.596Z,100743.00
2023-05-10T08:52:06.640Z,100745.41
2023-05-10T08:54:34.316Z,100752.88
2023-05-10T08:57:01.306Z,100753.88
2023-05-10T08:59:28.746Z,100751.50
2023-05-10T09:01:57.057Z,100694.25
2023-05-10T09:04:24.114Z,100755.34
2023-05-10T09:06:50.904Z,100747.34
2023-05-10T09:09:21.179Z,100761.59
2023-05-10T09:11:48.154Z,100755.34
2023-05-10T09:14:16.463Z,100744.56
2023-05-10T09:16:43.359Z,100751.91
2023-05-10T09:19:10.538Z,100752.22
2023-05-10T09:21:40.329Z,100755.44
2023-05-10T09:24:10.034Z,100749.16
2023-05-10T09:26:37.801Z,100750.84
2023-05-10T09:29:04.451Z,100745.63
2023-05-10T09:31:52.332Z,100740.75
2023-05-10T09:34:20.071Z,100744.97
2023-05-10T09:36:53.830Z,100751.66
2023-05-10T09:39:22.591Z,100747.41
2023-05-10T09:41:49.519Z,100747.34
2023-05-10T09:44:20.576Z,100709.28
2023-05-10T09:46:53.750Z,100749.06
2023-05-10T09:49:21.918Z,100747.38
2023-05-10T09:51:48.909Z,100746.63
2023-05-10T09:54:19.858Z,100750.25
2023-05-10T09:56:46.405Z,100749.25
2023-05-10T09:59:13.572Z,100760.06
2023-05-10T10:01:40.504Z,100767.41
2023-05-10T10:04:11.462Z,100755.28
2023-05-10T10:06:39.364Z,100749.09
2023-05-10T10:09:07.266Z,100752.59
2023-05-10T10:11:35.845Z,100752.13
2023-05-10T10:14:02.448Z,100745.63
2023-05-10T10:16:32.582Z,100749.06
2023-05-10T10:19:00.469Z,100743.72
2023-05-10T10:21:27.936Z,100748.00
2023-05-10T10:23:55.911Z,100744.91
2023-05-10T10:26:23.073Z,100737.59
2023-05-10T10:28:58.046Z,100740.97
2023-05-10T10:31:33.663Z,100745.31
2023-05-10T10:34:00.398Z,100744.91
2023-05-10T10:36:28.354Z,100741.41
2023-05-10T10:39:01.879Z,100742.84
2023-05-10T10:41:33.669Z,100741.59
2023-05-10T10:44:36.015Z,100740.50
2023-05-10T10:47:03.685Z,100749.09
2023-05-10T10:49:37.375Z,100744.22
2023-05-10T10:52:31.093Z,100745.69
2023-05-10T10:55:02.634Z,100742.22
2023-05-10T10:57:31.265Z,100746.97
2023-05-10T11:00:16.739Z,100743.75
2023-05-10T11:02:47.413Z,100748.13
2023-05-10T11:05:26.031Z,100746.03
2023-05-10T11:07:56.632Z,100746.22
2023-05-10T11:10:26.886Z,100750.38
2023-05-10T11:13:06.606Z,100753.91
2023-05-10T11:15:37.188Z,100759.47
2023-05-10T11:18:20.684Z,100757.66
2023-05-10T11:21:00.854Z,100762.22
2023-05-10T11:23:31.544Z,100757.19
2023-05-10T11:25:58.240Z,100769.91
2023-05-10T11:28:24.988Z,100772.06
2023-05-10T11:30:52.418Z,100769.91
2023-05-10T11:33:20.467Z,100771.19
2023-05-10T11:35:52.065Z,100777.84
2023-05-10T11:38:18.717Z,100777.19
2023-05-10T11:40:46.662Z,100783.34
2023-05-10T11:43:13.313Z,100783.69
2023-05-10T11:45:41.322Z,100777.94
2023-05-10T11:48:08.477Z,100778.09
2023-05-10T11:50:35.489Z,100782.94
2023-05-10T11:53:02.081Z,100777.59
2023-05-10T11:55:28.762Z,100779.25
2023-05-10T11:58:06.484Z,100779.78
2023-05-10T12:00:39.051Z,100782.66
2023-05-10T12:03:06.209Z,100785.31
2023-05-10T12:05:34.462Z,100724.72
2023-05-10T12:08:14.352Z,100781.47
2023-05-10T12:10:41.026Z,100789.16
2023-05-10T12:13:12.104Z,100783.69
2023-05-10T12:15:42.741Z,100785.00
2023-05-10T12:18:16.273Z,100785.34
2023-05-10T12:20:46.573Z,100783.81
2023-05-10T12:23:29.357Z,100786.09
2023-05-10T12:26:02.824Z,100782.91
2023-05-10T12:28:31.324Z,100777.38
2023-05-10T12:30:59.051Z,100773.19
2023-05-10T12:33:25.919Z,100777.50
2023-05-10T12:35:54.157Z,100783.16
2023-05-10T12:39:01.529Z,100778.16
2023-05-10T12:41:31.466Z,100719.50
2023-05-10T12:43:57.997Z,100783.22
2023-05-10T12:46:26.598Z,100780.19
2023-05-10T12:49:08.063Z,100786.88
2023-05-10T12:51:35.966Z,100783.50
2023-05-10T12:54:06.742Z,100779.47
2023-05-10T12:56:33.393Z,100780.16
2023-05-10T12:59:00.156Z,100782.78
2023-05-10T13:01:30.143Z,100787.41
2023-05-10T13:04:11.495Z,100729.75
2023-05-10T13:06:39.900Z,100774.22
2023-05-10T13:09:09.393Z,100779.56
2023-05-10T13:11:36.572Z,100775.03
2023-05-10T13:14:05.238Z,100768.91
2023-05-10T13:16:32.490Z,100767.38
2023-05-10T13:19:04.161Z,100764.03
2023-05-10T13:21:34.500Z,100769.25
2023-05-10T13:24:03.592Z,100765.59
2023-05-10T13:26:31.253Z,100766.97
2023-05-10T13:28:58.722Z,100764.00
2023-05-10T13:31:25.732Z,100761.00
2023-05-10T13:34:02.640Z,100757.97
2023-05-10T13:36:33.984Z,100754.00
2023-05-10T13:39:04.590Z,100755.50
2023-05-10T13:41:31.584Z,100746.16
2023-05-10T13:43:59.551Z,100751.50
2023-05-10T13:46:26.208Z,100752.34
2023-05-10T13:48:52.960Z,100742.03
2023-05-10T13:51:20.293Z,100736.97
2023-05-10T13:53:49.002Z,100687.03
2023-05-10T13:56:15.598Z,100733.63
2023-05-10T13:58:43.912Z,100733.97
2023-05-10T14:01:12.761Z,100722.09
2023-05-10T14:03:39.498Z,100735.09
2023-05-10T14:06:08.634Z,100727.75
2023-05-10T14:08:36.296Z,100729.28
2023-05-10T14:11:03.720Z,100672.00
2023-05-10T14:13:30.939Z,100726.94
2023-05-10T14:15:57.860Z,100720.31
2023-05-10T14:18:25.717Z,100716.50
2023-05-10T14:20:53.425Z,100723.69
2023-05-10T14:23:25.555Z,100719.38
2023-05-10T14:25:52.534Z,100723.34
2023-05-10T14:28:19.565Z,100714.53
2023-05-10T14:30:46.350Z,100711.00
2023-05-10T14:33:14.736Z,100718.84
2023-05-10T14:35:41.690Z,100716.03
2023-05-10T14:38:08.378Z,100707.69
2023-05-10T14:40:36.408Z,100717.84
2023-05-10T14:43:02.959Z,100718.16
2023-05-10T14:45:29.706Z,100713.66
2023-05-10T14:47:56.422Z,100706.97
2023-05-10T14:50:35.781Z,100714.97
2023-05-10T14:53:03.574Z,100709.16
2023-05-10T14:55:30.387Z,100708.97
2023-05-10T14:57:57.312Z,100706.13
2023-05-10T15:00:23.829Z,100701.56
2023-05-10T15:02:50.899Z,100698.53
2023-05-10T15:05:18.445Z,100705.25
2023-05-10T15:07:45.810Z,100698.25
2023-05-10T15:10:12.847Z,100710.25
2023-05-10T15:12:40.684Z,100704.28
2023-05-10T15:15:07.826Z,100705.94
2023-05-10T15:17:35.047Z,100714.97
2023-05-10T15:20:07.733Z,100708.28
2023-05-10T15:22:37.907Z,100716.50
2023-05-10T15:25:05.979Z,100719.38
2023-05-10T15:27:32.673Z,100716.50
2023-05-10T15:30:00.633Z,100711.34
2023-05-10T15:32:27.192Z,100707.38
2023-05-10T15:34:53.766Z,100710.34
2023-05-10T15:37:20.816Z,100710.72
2023-05-10T15:39:47.364Z,100710.53
2023-05-10T15:42:14.361Z,100706.72
2023-05-10T15:44:43.693Z,100715.88
2023-05-10T15:47:10.344Z,100710.22
2023-05-10T15:49:37.104Z,100713.88
2023-05-10T15:52:03.848Z,100706.50
2023-05-10T15:54:32.536Z,100716.38
2023-05-10T15:57:02.378Z,100704.22
2023-05-10T15:59:29.797Z,100706.03
2023-05-10T16:01:57.079Z,100695.66
2023-05-10T16:04:24.170Z,100704.03
2023-05-10T16:06:51.072Z,100703.69
2023-05-10T16:09:17.817Z,100696.84
2023-05-10T16:11:44.498Z,100698.53
2023-05-10T16:14:13.197Z,100696.41
2023-05-10T16:16:40.161Z,100695.72
2023-05-10T16:19:06.787Z,100696.97
2023-05-10T16:21:33.906Z,100699.97
2023-05-10T16:24:00.752Z,100701.28
2023-05-10T16:26:27.342Z,100697.91
2023-05-10T16:28:53.940Z,100696.91
2023-05-10T16:31:20.755Z,100695.59
2023-05-10T16:33:47.769Z,100698.59
2023-05-10T16:36:16.973Z,100697.22
2023-05-10T16:38:45.045Z,100693.03
2023-05-10T16:41:11.742Z,100694.19
2023-05-10T16:43:39.240Z,100693.03
2023-05-10T16:46:12.223Z,100693.03
2023-05-10T16:48:39.016Z,100693.41
2023-05-10T16:51:09.260Z,100695.72
2023-05-10T16:53:36.774Z,100685.25
2023-05-10T16:56:03.385Z,100696.75
2023-05-10T16:58:30.295Z,100688.13
2023-05-10T17:03:41.406Z,100691.44
2023-05-10T17:06:08.796Z,100686.19
2023-05-10T17:08:35.690Z,100691.72
2023-05-10T17:11:03.257Z,100690.34
2023-05-10T17:13:30.387Z,100693.72
2023-05-10T17:15:57.057Z,100689.06
2023-05-10T17:18:23.919Z,100690.09
2023-05-10T17:20:55.788Z,100693.13
2023-05-10T17:23:22.445Z,100698.47
2023-05-10T17:25:49.318Z,100698.88
2023-05-10T17:28:17.118Z,100691.06
2023-05-10T17:30:46.871Z,100688.72
2023-05-10T17:33:22.380Z,100640.75
2023-05-10T17:35:49.907Z,100690.69
2023-05-10T17:38:18.415Z,100689.81
2023-05-10T17:40:45.048Z,100691.34
2023-05-10T17:43:11.651Z,100690.19
2023-05-10T17:45:38.499Z,100697.72
2023-05-10T17:48:07.487Z,100645.63
2023-05-10T17:50:41.628Z,100701.75
2023-05-10T17:53:16.772Z,100645.31
2023-05-10T17:55:49.709Z,100688.31
2023-05-10T17:58:16.516Z,100695.84
2023-05-10T18:00:50.082Z,100696.16
2023-05-10T18:03:18.314Z,100697.94
2023-05-10T18:05:46.383Z,100701.28
2023-05-10T18:08:13.744Z,100701.28
2023-05-10T18:10:41.469Z,100697.66
2023-05-10T18:13:09.892Z,100700.31
2023-05-10T18:15:43.320Z,100699.94
2023-05-10T18:18:18.347Z,100703.72
2023-05-10T18:20:46.751Z,100707.69
2023-05-10T18:23:16.537Z,100708.84
2023-05-10T18:25:55.456Z,100656.78
2023-05-10T18:28:25.598Z,100713.34
2023-05-10T18:30:53.671Z,100658.28
2023-05-10T18:33:30.330Z,100697.81
2023-05-10T18:36:02.827Z,100706.00
2023-05-10T18:38:33.957Z,100710.41
2023-05-10T18:41:01.370Z,100709.03
2023-05-10T18:43:28.035Z,100707.69
2023-05-10T18:45:54.632Z,100710.34
2023-05-10T18:48:31.447Z,100659.94
2023-05-10T18:51:00.589Z,100710.72
2023-05-10T18:53:58.326Z,100668.53
2023-05-10T18:56:26.439Z,100718.44
2023-05-10T18:59:09.442Z,100711.03
2023-05-10T19:01:36.086Z,100717.53
2023-05-10T19:04:02.997Z,100710.19
2023-05-10T19:06:56.278Z,100713.66
2023-05-10T19:09:25.975Z,100712.66
2023-05-10T19:12:01.539Z,100701.41
2023-05-10T19:14:31.597Z,100712.69
2023-05-10T19:17:01.224Z,100720.06
2023-05-10T19:19:31.073Z,100712.06
2023-05-10T19:22:03.865Z,100708.41
2023-05-10T19:24:31.630Z,100713.84
2023-05-10T19:27:00.763Z,100715.69
2023-05-10T19:29:30.712Z,100708.69
2023-05-10T19:32:02.952Z,100663.44
2023-05-10T19:34:29.581Z,100719.19
2023-05-10T19:37:00.673Z,100711.34
2023-05-10T19:39:28.707Z,100654.38
2023-05-10T19:42:00.075Z,100709.97
2023-05-10T19:44:27.043Z,100709.66
2023-05-10T19:47:00.011Z,100715.66
2023-05-10T19:49:32.973Z,100667.28
2023-05-10T19:52:13.337Z,100711.34
2023-05-10T19:54:39.958Z,100722.22
2023-05-10T19:57:08.945Z,100715.06
2023-05-10T19:59:36.760Z,100721.72
2023-05-10T20:02:05.151Z,100705.22
2023-05-10T20:04:38.425Z,100718.22
2023-05-10T20:07:06.526Z,100719.38
2023-05-10T20:09:33.231Z,100710.72
2023-05-10T20:12:00.423Z,100713.09
2023-05-10T20:14:32.871Z,100705.38
2023-05-10T20:17:03.495Z,100712.19
2023-05-10T20:19:30.128Z,100709.97
2023-05-10T20:22:00.917Z,100719.38
2023-05-10T20:24:27.610Z,100713.91
2023-05-10T20:26:54.399Z,100709.56
2023-05-10T20:29:20.969Z,100708.72
2023-05-10T20:31:47.779Z,100704.38
2023-05-10T20:34:14.486Z,100705.22
2023-05-10T20:36:41.351Z,100700.03
2023-05-10T20:39:12.291Z,100702.00
2023-05-10T20:42:03.047Z,100650.84
2023-05-10T20:44:30.594Z,100704.50
2023-05-10T20:46:57.809Z,100651.72
2023-05-10T20:49:38.228Z,100708.69
2023-05-10T20:52:09.355Z,100703.81
2023-05-10T20:54:36.156Z,100699.63
2023-05-10T20:57:03.598Z,100678.16
2023-05-10T20:59:34.968Z,100681.72
2023-05-10T21:02:02.260Z,100710.53
2023-05-10T21:04:29.070Z,100705.84
2023-05-10T21:06:57.037Z,100703.28
2023-05-10T21:09:26.857Z,100711.25
2023-05-10T21:11:54.357Z,100701.94
2023-05-10T21:14:23.364Z,100703.28
2023-05-10T21:16:55.634Z,100698.13
2023-05-10T21:19:22.907Z,100695.94
2023-05-10T21:21:52.101Z,100692.19
2023-05-10T21:24:18.860Z,100698.22
2023-05-10T21:26:45.689Z,100691.66
2023-05-10T21:31:52.723Z,100693.25
2023-05-10T21:34:23.798Z,100695.00
2023-05-10T21:36:51.020Z,100692.41
2023-05-10T21:39:19.266Z,100638.59
2023-05-10T21:41:49.228Z,100649.16
2023-05-10T21:44:17.223Z,100684.88
2023-05-10T21:46:46.412Z,100682.66
2023-05-10T21:49:13.498Z,100692.50
2023-05-10T21:51:40.069Z,100682.50
2023-05-10T21:54:06.971Z,100699.50
2023-05-10T21:56:33.907Z,100684.97
2023-05-10T21:59:00.518Z,100694.81
2023-05-10T22:01:27.698Z,100691.81
2023-05-10T22:03:55.069Z,100694.13
2023-05-10T22:06:21.668Z,100696.16
2023-05-10T22:08:48.276Z,100691.75
2023-05-10T22:11:14.915Z,100691.00
2023-05-10T22:13:41.511Z,100685.06
2023-05-10T22:16:08.201Z,100700.16
2023-05-10T22:18:37.854Z,100688.09
2023-05-10T22:21:04.533Z,100688.56
2023-05-10T22:23:31.389Z,100692.72
2023-05-10T22:26:02.877Z,100685.69
2023-05-10T22:28:29.785Z,100688.72
2023-05-10T22:30:56.526Z,100699.75
2023-05-10T22:33:23.167Z,100687.38
2023-05-10T22:35:49.678Z,100683.69
2023-05-10T22:38:16.287Z,100689.03
2023-05-10T22:40:45.026Z,100685.06
2023-05-10T22:43:11.902Z,100694.28
2023-05-10T22:45:38.467Z,100693.75
2023-05-10T22:48:05.311Z,100693.22
2023-05-10T22:50:33.053Z,100636.66
2023-05-10T22:52:59.567Z,100698.34
2023-05-10T22:55:26.450Z,100703.38
2023-05-10T22:57:53.445Z,100693.00
2023-05-10T23:00:20.337Z,100699.72
2023-05-10T23:02:47.260Z,100700.03
2023-05-10T23:05:17.143Z,100715.13
2023-05-10T23:07:53.601Z,100703.38
2023-05-10T23:10:20.470Z,100698.03
2023-05-10T23:12:50.774Z,100708.53
2023-05-10T23:15:20.492Z,100711.03
2023-05-10T23:17:47.185Z,100705.38
2023-05-10T23:20:16.721Z,100651.91
2023-05-10T23:22:43.671Z,100704.44
2023-05-10T23:25:16.783Z,100699.25
2023-05-10T23:27:44.621Z,100713.09
2023-05-10T23:30:11.424Z,100698.66
2023-05-10T23:32:38.127Z,100696.34
2023-05-10T23:35:04.894Z,100695.38
2023-05-10T23:37:31.684Z,100699.38
2023-05-10T23:40:01.653Z,100694.69
2023-05-10T23:42:32.513Z,100701.88
2023-05-10T23:44:59.128Z,100692.38
2023-05-10T23:47:25.710Z,100692.63
2023-05-10T23:49:52.668Z,100688.09
2023-05-10T23:52:22.866Z,100687.78
2023-05-10T23:54:49.501Z,100681.72
2023-05-10T23:57:16.176Z,100682.31
2023-05-10T23:59:42.762Z,100687.06
